createdAt,value
2023-04-26T00:01:58.880Z,8.82
2023-04-26T00:04:26.032Z,8.80
2023-04-26T00:06:52.918Z,8.80
2023-04-26T00:09:19.747Z,8.70
2023-04-26T00:11:46.798Z,8.70
2023-04-26T00:14:13.856Z,8.70
2023-04-26T00:16:40.660Z,8.70
2023-04-26T00:19:07.483Z,8.70
2023-04-26T00:21:34.145Z,8.60
2023-04-26T00:24:00.851Z,8.60
2023-04-26T00:26:27.534Z,8.60
2023-04-26T00:28:54.772Z,8.60
2023-04-26T00:31:21.811Z,8.64
2023-04-26T00:33:48.773Z,8.70
2023-04-26T00:36:19.269Z,8.70
2023-04-26T00:38:46.927Z,8.70
2023-04-26T00:41:14.348Z,8.70
2023-04-26T00:43:41.306Z,8.70
2023-04-26T00:46:10.367Z,8.70
2023-04-26T00:48:38.147Z,8.70
2023-04-26T00:51:06.985Z,8.70
2023-04-26T00:53:35.491Z,8.70
2023-04-26T00:56:03.511Z,8.70
2023-04-26T00:58:30.756Z,8.70
2023-04-26T01:00:57.478Z,8.70
2023-04-26T01:03:25.228Z,8.70
2023-04-26T01:05:53.288Z,8.70
2023-04-26T01:08:21.893Z,8.70
2023-04-26T01:10:50.851Z,8.70
2023-04-26T01:13:17.740Z,8.70
2023-04-26T01:15:48.331Z,8.70
2023-04-26T01:18:15.439Z,8.70
2023-04-26T01:20:43.128Z,8.70
2023-04-26T01:23:11.801Z,8.64
2023-04-26T01:25:39.221Z,8.60
2023-04-26T01:28:06.160Z,8.60
2023-04-26T01:30:33.159Z,8.60
2023-04-26T01:33:03.126Z,8.60
2023-04-26T01:35:30.110Z,8.60
2023-04-26T01:37:56.739Z,8.60
2023-04-26T01:40:23.382Z,8.52
2023-04-26T01:42:50.090Z,8.56
2023-04-26T01:45:17.549Z,8.56
2023-04-26T01:48:02.871Z,8.60
2023-04-26T01:50:31.948Z,8.60
2023-04-26T01:52:58.615Z,8.60
2023-04-26T01:55:25.316Z,8.60
2023-04-26T01:57:52.003Z,8.62
2023-04-26T02:00:19.357Z,8.70
2023-04-26T02:02:49.273Z,8.70
2023-04-26T02:05:16.243Z,8.70
2023-04-26T02:07:42.908Z,8.70
2023-04-26T02:10:09.745Z,8.70
2023-04-26T02:12:36.530Z,8.70
2023-04-26T02:15:03.546Z,8.70
2023-04-26T02:17:30.837Z,8.70
2023-04-26T02:19:58.498Z,8.70
2023-04-26T02:22:25.425Z,8.70
2023-04-26T02:24:53.088Z,8.70
2023-04-26T02:27:20.232Z,8.66
2023-04-26T02:29:47.410Z,8.62
2023-04-26T02:32:14.702Z,8.62
2023-04-26T02:34:43.143Z,8.64
2023-04-26T02:37:10.097Z,8.70
2023-04-26T02:39:36.805Z,8.70
2023-04-26T02:42:03.871Z,8.70
2023-04-26T02:44:31.152Z,8.70
2023-04-26T02:46:58.040Z,8.70
2023-04-26T02:49:24.922Z,8.70
2023-04-26T02:51:51.992Z,8.60
2023-04-26T02:54:18.957Z,8.60
2023-04-26T02:56:45.644Z,8.60
2023-04-26T02:59:12.364Z,8.60
2023-04-26T03:01:39.092Z,8.60
2023-04-26T03:04:06.658Z,8.60
2023-04-26T03:06:34.504Z,8.60
2023-04-26T03:09:01.445Z,8.60
2023-04-26T03:11:28.069Z,8.60
2023-04-26T03:13:54.706Z,8.60
2023-04-26T03:16:23.702Z,8.60
2023-04-26T03:18:51.102Z,8.60
2023-04-26T03:21:18.155Z,8.60
2023-04-26T03:23:45.071Z,8.60
2023-04-26T03:26:12.003Z,8.60
2023-04-26T03:28:38.883Z,8.60
2023-04-26T03:31:05.595Z,8.60
2023-04-26T03:33:32.250Z,8.60
2023-04-26T03:35:58.985Z,8.62
2023-04-26T03:38:26.134Z,8.60
2023-04-26T03:40:52.830Z,8.60
2023-04-26T03:43:19.454Z,8.60
2023-04-26T03:45:49.493Z,8.60
2023-04-26T03:48:17.269Z,8.56
2023-04-26T03:50:46.146Z,8.60
2023-04-26T03:53:14.645Z,8.60
2023-04-26T03:55:42.093Z,8.74
2023-04-26T03:58:09.616Z,8.74
2023-04-26T04:00:41.238Z,8.72
2023-04-26T04:03:08.596Z,8.72
2023-04-26T04:05:35.885Z,8.70
2023-04-26T04:08:03.810Z,8.70
2023-04-26T04:10:30.943Z,8.70
2023-04-26T04:12:57.607Z,8.60
2023-04-26T04:15:24.680Z,8.60
2023-04-26T04:17:51.410Z,8.60
2023-04-26T04:20:18.448Z,8.60
2023-04-26T04:22:45.263Z,8.60
2023-04-26T04:25:12.165Z,8.52
2023-04-26T04:27:42.671Z,8.60
2023-04-26T04:30:10.460Z,8.60
2023-04-26T04:32:38.095Z,8.60
2023-04-26T04:35:07.263Z,8.60
2023-04-26T04:37:34.966Z,8.60
2023-04-26T04:40:02.464Z,8.60
2023-04-26T04:42:32.287Z,8.60
2023-04-26T04:44:59.863Z,8.60
2023-04-26T04:47:27.698Z,8.60
2023-04-26T04:49:54.820Z,8.60
2023-04-26T04:52:21.965Z,8.60
2023-04-26T04:54:48.897Z,8.60
2023-04-26T04:57:16.797Z,8.60
2023-04-26T04:59:44.898Z,8.70
2023-04-26T05:02:11.609Z,8.70
2023-04-26T05:04:38.646Z,8.70
2023-04-26T05:07:09.235Z,8.76
2023-04-26T05:09:37.110Z,8.80
2023-04-26T05:12:05.240Z,8.80
2023-04-26T05:14:31.997Z,8.80
2023-04-26T05:16:58.820Z,8.80
2023-04-26T05:19:26.135Z,8.80
2023-04-26T05:21:53.420Z,8.88
2023-04-26T05:24:20.126Z,9.00
2023-04-26T05:26:47.543Z,9.10
2023-04-26T05:29:41.817Z,9.30
2023-04-26T05:32:27.224Z,9.50
2023-04-26T05:35:23.163Z,9.60
2023-04-26T05:37:49.974Z,9.76
2023-04-26T05:40:18.374Z,9.94
2023-04-26T05:42:45.190Z,10.00
2023-04-26T05:45:12.385Z,10.08
2023-04-26T05:47:39.920Z,10.06
2023-04-26T05:50:09.180Z,10.20
2023-04-26T05:52:35.958Z,10.28
2023-04-26T05:55:04.319Z,10.30
2023-04-26T05:57:31.117Z,10.30
2023-04-26T05:59:57.990Z,10.30
2023-04-26T06:02:26.063Z,10.30
2023-04-26T06:04:54.274Z,10.30
2023-04-26T06:07:21.330Z,10.20
2023-04-26T06:09:48.567Z,10.20
2023-04-26T06:12:16.700Z,10.20
2023-04-26T06:14:44.284Z,10.30
2023-04-26T06:17:15.063Z,10.30
2023-04-26T06:19:42.841Z,10.38
2023-04-26T06:22:09.598Z,10.40
2023-04-26T06:24:36.268Z,10.40
2023-04-26T06:27:02.917Z,10.46
2023-04-26T06:29:33.151Z,10.48
2023-04-26T06:31:59.910Z,10.50
2023-04-26T06:34:27.240Z,10.58
2023-04-26T06:36:54.039Z,10.60
2023-04-26T06:39:22.365Z,10.70
2023-04-26T06:41:50.465Z,10.80
2023-04-26T06:44:25.768Z,10.88
2023-04-26T06:46:55.672Z,10.92
2023-04-26T06:49:23.309Z,11.00
2023-04-26T06:51:52.753Z,11.00
2023-04-26T06:54:19.994Z,11.10
2023-04-26T06:56:46.756Z,11.30
2023-04-26T06:59:13.412Z,11.52
2023-04-26T07:01:41.173Z,11.60
2023-04-26T07:04:10.649Z,11.70
2023-04-26T07:06:39.123Z,11.84
2023-04-26T07:09:05.731Z,12.10
2023-04-26T07:11:32.458Z,12.34
2023-04-26T07:13:59.139Z,12.52
2023-04-26T07:16:27.379Z,12.80
2023-04-26T07:18:58.059Z,13.00
2023-04-26T07:21:26.799Z,13.10
2023-04-26T07:23:58.043Z,13.20
2023-04-26T07:26:26.693Z,13.14
2023-04-26T07:28:54.000Z,13.10
2023-04-26T07:31:21.548Z,13.10
2023-04-26T07:33:48.582Z,13.10
2023-04-26T07:36:15.332Z,13.08
2023-04-26T07:38:42.493Z,12.90
2023-04-26T07:41:09.208Z,12.80
2023-04-26T07:43:36.065Z,12.84
2023-04-26T07:46:02.794Z,12.90
2023-04-26T07:48:29.546Z,12.80
2023-04-26T07:50:56.711Z,12.74
2023-04-26T07:53:23.470Z,12.70
2023-04-26T07:55:54.777Z,12.82
2023-04-26T07:58:21.648Z,13.00
2023-04-26T08:00:48.380Z,13.12
2023-04-26T08:03:17.887Z,13.20
2023-04-26T08:05:45.643Z,13.34
2023-04-26T08:08:12.785Z,13.42
2023-04-26T08:10:42.820Z,13.58
2023-04-26T08:13:09.453Z,13.68
2023-04-26T08:15:36.172Z,13.76
2023-04-26T08:18:02.955Z,13.70
2023-04-26T08:20:29.663Z,13.70
2023-04-26T08:22:57.111Z,13.70
2023-04-26T08:25:24.688Z,13.58
2023-04-26T08:27:52.523Z,13.40
2023-04-26T08:30:19.630Z,13.30
2023-04-26T08:32:47.060Z,13.26
2023-04-26T08:35:13.846Z,13.20
2023-04-26T08:37:40.858Z,13.10
2023-04-26T08:40:11.734Z,13.10
2023-04-26T08:42:44.352Z,13.12
2023-04-26T08:45:11.697Z,13.20
2023-04-26T08:48:04.591Z,13.10
2023-04-26T08:50:34.612Z,13.00
2023-04-26T08:53:01.908Z,13.00
2023-04-26T08:55:29.549Z,13.16
2023-04-26T08:57:56.979Z,13.20
2023-04-26T09:00:24.217Z,13.28
2023-04-26T09:02:52.923Z,13.30
2023-04-26T09:05:24.822Z,13.30
2023-04-26T09:07:57.505Z,13.30
2023-04-26T09:10:24.379Z,13.40
2023-04-26T09:12:54.643Z,13.50
2023-04-26T09:15:23.764Z,13.50
2023-04-26T09:17:51.943Z,13.68
2023-04-26T09:20:29.159Z,13.80
2023-04-26T09:23:09.932Z,13.96
2023-04-26T09:25:37.630Z,14.10
2023-04-26T09:28:23.333Z,14.08
2023-04-26T09:30:50.505Z,14.06
2023-04-26T09:33:17.308Z,13.90
2023-04-26T09:35:44.723Z,13.62
2023-04-26T09:38:14.290Z,13.30
2023-04-26T09:40:50.114Z,13.20
2023-04-26T09:43:20.706Z,13.10
2023-04-26T09:45:56.227Z,13.00
2023-04-26T09:48:34.981Z,12.90
2023-04-26T09:51:04.366Z,13.04
2023-04-26T09:53:37.422Z,13.30
2023-04-26T09:56:15.678Z,13.50
2023-04-26T09:58:52.493Z,13.74
2023-04-26T10:01:20.208Z,14.02
2023-04-26T10:03:47.711Z,14.30
2023-04-26T10:06:15.810Z,14.40
2023-04-26T10:08:43.242Z,14.50
2023-04-26T10:11:13.919Z,14.82
2023-04-26T10:13:42.973Z,14.94
2023-04-26T10:16:10.248Z,15.04
2023-04-26T10:18:37.608Z,15.10
2023-04-26T10:21:26.265Z,15.10
2023-04-26T10:23:53.537Z,15.18
2023-04-26T10:26:54.984Z,15.10
2023-04-26T10:29:26.223Z,15.16
2023-04-26T10:32:02.207Z,15.34
2023-04-26T10:34:31.300Z,15.40
2023-04-26T10:37:10.078Z,15.40
2023-04-26T10:39:38.674Z,15.26
2023-04-26T10:42:25.650Z,14.96
2023-04-26T10:44:58.660Z,14.80
2023-04-26T10:47:38.893Z,14.84
2023-04-26T10:50:09.166Z,15.00
2023-04-26T10:52:41.105Z,15.20
2023-04-26T10:55:08.489Z,15.40
2023-04-26T10:57:54.285Z,15.50
2023-04-26T11:00:31.691Z,15.70
2023-04-26T11:03:09.594Z,15.70
2023-04-26T11:05:55.408Z,15.62
2023-04-26T11:08:27.546Z,15.64
2023-04-26T11:11:03.431Z,15.62
2023-04-26T11:13:42.711Z,15.62
2023-04-26T11:16:15.237Z,15.60
2023-04-26T11:18:45.064Z,15.50
2023-04-26T11:21:17.395Z,15.50
2023-04-26T11:23:54.239Z,15.50
2023-04-26T11:26:21.121Z,15.50
2023-04-26T11:28:49.336Z,15.30
2023-04-26T11:31:19.352Z,15.20
2023-04-26T11:33:49.196Z,15.20
2023-04-26T11:36:17.653Z,15.40
2023-04-26T11:38:44.363Z,15.60
2023-04-26T11:41:11.451Z,15.70
2023-04-26T11:43:39.912Z,15.80
2023-04-26T11:46:10.714Z,16.00
2023-04-26T11:48:39.045Z,16.00
2023-04-26T11:51:08.187Z,15.80
2023-04-26T11:53:43.214Z,15.60
2023-04-26T11:56:23.023Z,15.40
2023-04-26T11:58:52.399Z,15.16
2023-04-26T12:01:27.441Z,15.00
2023-04-26T12:03:57.492Z,14.80
2023-04-26T12:06:41.678Z,14.64
2023-04-26T12:09:09.374Z,14.58
2023-04-26T12:11:35.967Z,14.50
2023-04-26T12:14:03.096Z,14.50
2023-04-26T12:16:29.748Z,14.60
2023-04-26T12:18:57.122Z,14.70
2023-04-26T12:21:28.192Z,14.78
2023-04-26T12:23:56.967Z,14.74
2023-04-26T12:26:43.580Z,14.66
2023-04-26T12:29:10.612Z,14.60
2023-04-26T12:31:37.549Z,14.70
2023-04-26T12:34:04.290Z,14.60
2023-04-26T12:36:31.668Z,14.50
2023-04-26T12:38:58.308Z,14.30
2023-04-26T12:41:24.946Z,14.26
2023-04-26T12:43:51.512Z,14.30
2023-04-26T12:46:18.373Z,14.28
2023-04-26T12:48:45.029Z,14.20
2023-04-26T12:51:11.602Z,14.20
2023-04-26T12:53:38.183Z,14.20
2023-04-26T12:56:05.714Z,14.30
2023-04-26T12:58:32.354Z,14.40
2023-04-26T13:00:58.961Z,14.50
2023-04-26T13:03:25.818Z,14.60
2023-04-26T13:05:52.633Z,14.60
2023-04-26T13:08:21.745Z,14.60
2023-04-26T13:10:48.328Z,14.60
2023-04-26T13:13:15.012Z,14.50
2023-04-26T13:15:41.788Z,14.40
2023-04-26T13:18:08.677Z,14.40
2023-04-26T13:20:36.165Z,14.50
2023-04-26T13:23:03.100Z,14.58
2023-04-26T13:25:30.061Z,14.70
2023-04-26T13:27:56.628Z,14.70
2023-04-26T13:30:23.244Z,14.80
2023-04-26T13:32:50.086Z,14.90
2023-04-26T13:35:17.043Z,15.00
2023-04-26T13:37:43.654Z,15.00
2023-04-26T13:40:11.404Z,15.10
2023-04-26T13:42:39.351Z,15.34
2023-04-26T13:45:09.419Z,15.50
2023-04-26T13:47:36.884Z,15.70
2023-04-26T13:50:04.546Z,15.50
2023-04-26T13:52:31.209Z,15.30
2023-04-26T13:54:57.911Z,15.20
2023-04-26T13:57:24.603Z,15.30
2023-04-26T13:59:51.321Z,15.40
2023-04-26T14:02:18.206Z,15.50
2023-04-26T14:04:45.449Z,15.60
2023-04-26T14:07:12.218Z,15.70
2023-04-26T14:09:38.904Z,16.04
2023-04-26T14:12:08.929Z,16.40
2023-04-26T14:14:37.161Z,16.66
2023-04-26T14:17:03.951Z,16.72
2023-04-26T14:19:31.336Z,16.70
2023-04-26T14:21:57.989Z,16.60
2023-04-26T14:24:24.733Z,16.50
2023-04-26T14:26:51.564Z,16.50
2023-04-26T14:29:18.178Z,16.40
2023-04-26T14:31:45.388Z,16.46
2023-04-26T14:34:13.440Z,16.50
2023-04-26T14:36:40.127Z,16.52
2023-04-26T14:39:07.301Z,16.60
2023-04-26T14:41:33.921Z,16.50
2023-04-26T14:44:00.787Z,16.40
2023-04-26T14:46:28.018Z,16.40
2023-04-26T14:48:55.500Z,16.34
2023-04-26T14:51:23.005Z,16.28
2023-04-26T14:53:49.586Z,16.20
2023-04-26T14:56:16.355Z,16.10
2023-04-26T14:58:42.957Z,16.00
2023-04-26T15:01:10.423Z,15.90
2023-04-26T15:03:37.444Z,15.90
2023-04-26T15:06:04.396Z,15.80
2023-04-26T15:08:31.554Z,15.70
2023-04-26T15:10:58.134Z,15.60
2023-04-26T15:13:24.723Z,15.60
2023-04-26T15:15:51.331Z,15.50
2023-04-26T15:18:18.628Z,15.50
2023-04-26T15:20:45.477Z,15.48
2023-04-26T15:23:12.110Z,15.50
2023-04-26T15:25:38.773Z,15.40
2023-04-26T15:28:05.788Z,15.30
2023-04-26T15:30:32.520Z,15.20
2023-04-26T15:33:00.318Z,15.20
2023-04-26T15:35:27.124Z,15.20
2023-04-26T15:37:54.154Z,15.30
2023-04-26T15:40:27.696Z,15.20
2023-04-26T15:42:54.606Z,15.20
2023-04-26T15:45:21.277Z,15.30
2023-04-26T15:47:47.934Z,15.22
2023-04-26T15:50:14.836Z,15.20
2023-04-26T15:52:42.212Z,15.26
2023-04-26T15:55:09.959Z,15.30
2023-04-26T15:57:37.829Z,15.30
2023-04-26T16:00:08.366Z,15.30
2023-04-26T16:02:35.580Z,15.50
2023-04-26T16:05:02.670Z,15.40
2023-04-26T16:07:29.964Z,15.30
2023-04-26T16:09:56.560Z,15.20
2023-04-26T16:12:23.112Z,15.08
2023-04-26T16:14:51.252Z,14.92
2023-04-26T16:17:17.982Z,14.90
2023-04-26T16:19:44.614Z,14.90
2023-04-26T16:22:11.263Z,14.80
2023-04-26T16:24:37.886Z,14.80
2023-04-26T16:27:04.741Z,14.80
2023-04-26T16:29:31.656Z,14.78
2023-04-26T16:31:58.502Z,14.74
2023-04-26T16:34:26.818Z,14.74
2023-04-26T16:36:53.411Z,14.70
2023-04-26T16:39:20.381Z,14.60
2023-04-26T16:41:46.996Z,14.50
2023-04-26T16:44:13.665Z,14.44
2023-04-26T16:46:43.447Z,14.38
2023-04-26T16:49:10.834Z,14.30
2023-04-26T16:51:38.021Z,14.20
2023-04-26T16:54:05.155Z,14.18
2023-04-26T16:56:32.400Z,14.10
2023-04-26T16:58:59.486Z,14.00
2023-04-26T17:01:26.800Z,14.00
2023-04-26T17:03:54.589Z,14.00
2023-04-26T17:06:21.468Z,14.00
2023-04-26T17:08:48.276Z,14.00
2023-04-26T17:11:16.601Z,14.04
2023-04-26T17:13:44.075Z,14.10
2023-04-26T17:16:11.370Z,14.10
2023-04-26T17:18:38.594Z,14.10
2023-04-26T17:21:07.057Z,14.10
2023-04-26T17:23:34.446Z,14.10
2023-04-26T17:26:01.829Z,14.00
2023-04-26T17:28:29.149Z,13.90
2023-04-26T17:30:55.917Z,13.80
2023-04-26T17:33:23.345Z,13.70
2023-04-26T17:35:50.159Z,13.60
2023-04-26T17:38:17.062Z,13.50
2023-04-26T17:40:43.670Z,13.40
2023-04-26T17:43:11.298Z,13.36
2023-04-26T17:45:37.931Z,13.30
2023-04-26T17:48:05.426Z,13.20
2023-04-26T17:50:32.134Z,13.16
2023-04-26T17:52:58.768Z,13.10
2023-04-26T17:55:25.462Z,13.00
2023-04-26T17:57:52.176Z,12.90
2023-04-26T18:00:19.444Z,12.90
2023-04-26T18:02:46.314Z,12.80
2023-04-26T18:05:13.414Z,12.70
2023-04-26T18:07:40.177Z,12.70
2023-04-26T18:10:08.091Z,12.60
2023-04-26T18:12:36.185Z,12.50
2023-04-26T18:15:02.870Z,12.46
2023-04-26T18:17:29.722Z,12.30
2023-04-26T18:19:56.438Z,12.20
2023-04-26T18:22:23.096Z,12.10
2023-04-26T18:24:49.781Z,12.00
2023-04-26T18:27:16.464Z,11.90
2023-04-26T18:29:43.957Z,11.80
2023-04-26T18:32:10.655Z,11.70
2023-04-26T18:34:37.333Z,11.70
2023-04-26T18:37:04.788Z,11.60
2023-04-26T18:39:31.795Z,11.54
2023-04-26T18:41:58.534Z,11.50
2023-04-26T18:44:25.164Z,11.50
2023-04-26T18:46:55.610Z,11.46
2023-04-26T18:49:23.631Z,11.40
2023-04-26T18:51:50.343Z,11.40
2023-04-26T18:54:17.044Z,11.40
2023-04-26T18:56:44.059Z,11.38
2023-04-26T18:59:11.371Z,11.30
2023-04-26T19:01:38.683Z,11.30
2023-04-26T19:04:05.997Z,11.30
2023-04-26T19:06:33.173Z,11.28
2023-04-26T19:09:00.966Z,11.24
2023-04-26T19:11:27.643Z,11.20
2023-04-26T19:13:54.274Z,11.20
2023-04-26T19:16:24.060Z,11.10
2023-04-26T19:18:51.958Z,11.10
2023-04-26T19:21:18.709Z,11.10
2023-04-26T19:23:46.732Z,11.00
2023-04-26T19:26:13.519Z,11.00
2023-04-26T19:28:40.828Z,11.00
2023-04-26T19:31:07.668Z,11.00
2023-04-26T19:33:34.582Z,11.00
2023-04-26T19:36:01.201Z,11.00
2023-04-26T19:38:28.666Z,11.00
2023-04-26T19:40:55.300Z,11.00
2023-04-26T19:43:21.951Z,11.00
2023-04-26T19:45:48.582Z,11.00
2023-04-26T19:48:15.412Z,10.90
2023-04-26T19:50:46.744Z,10.90
2023-04-26T19:53:15.041Z,10.80
2023-04-26T19:55:42.709Z,10.78
2023-04-26T19:58:11.020Z,10.70
2023-04-26T20:00:38.774Z,10.70
2023-04-26T20:03:06.694Z,10.70
2023-04-26T20:05:33.774Z,10.70
2023-04-26T20:08:01.379Z,10.70
2023-04-26T20:10:34.027Z,10.70
2023-04-26T20:13:01.424Z,10.60
2023-04-26T20:15:29.372Z,10.60
2023-04-26T20:17:57.178Z,10.60
2023-04-26T20:20:24.343Z,10.60
2023-04-26T20:22:51.133Z,10.60
2023-04-26T20:25:19.891Z,10.60
2023-04-26T20:27:47.817Z,10.60
2023-04-26T20:30:15.799Z,10.60
2023-04-26T20:32:43.370Z,10.60
2023-04-26T20:35:10.218Z,10.60
2023-04-26T20:37:36.954Z,10.60
2023-04-26T20:40:04.990Z,10.60
2023-04-26T20:42:32.170Z,10.60
2023-04-26T20:45:01.244Z,10.60
2023-04-26T20:47:28.850Z,10.60
2023-04-26T20:49:55.622Z,10.54
2023-04-26T20:52:22.217Z,10.50
2023-04-26T20:54:49.017Z,10.50
2023-04-26T20:57:16.068Z,10.50
2023-04-26T20:59:42.844Z,10.60
2023-04-26T21:02:10.074Z,10.50
2023-04-26T21:04:38.834Z,10.50
2023-04-26T21:07:05.762Z,10.40
2023-04-26T21:09:32.552Z,10.34
2023-04-26T21:11:59.159Z,10.30
2023-04-26T21:14:26.209Z,10.20
2023-04-26T21:16:52.788Z,10.20
2023-04-26T21:19:20.141Z,10.20
2023-04-26T21:21:46.934Z,10.20
2023-04-26T21:24:13.693Z,10.40
2023-04-26T21:26:40.349Z,10.60
2023-04-26T21:29:07.691Z,10.60
2023-04-26T21:31:35.018Z,10.50
2023-04-26T21:34:01.987Z,10.50
2023-04-26T21:36:28.577Z,10.48
2023-04-26T21:38:55.183Z,10.40
2023-04-26T21:41:23.434Z,10.30
2023-04-26T21:43:50.393Z,10.20
2023-04-26T21:46:17.073Z,10.20
2023-04-26T21:48:44.735Z,10.08
2023-04-26T21:51:11.722Z,10.10
2023-04-26T21:53:38.348Z,10.08
2023-04-26T21:56:06.659Z,10.10
2023-04-26T21:58:33.467Z,10.10
2023-04-26T22:01:12.738Z,10.10
2023-04-26T22:03:39.842Z,10.10
2023-04-26T22:06:09.464Z,10.00
2023-04-26T22:08:36.207Z,10.00
2023-04-26T22:11:03.167Z,10.00
2023-04-26T22:13:31.494Z,9.98
2023-04-26T22:15:58.509Z,9.90
2023-04-26T22:18:26.463Z,9.90
2023-04-26T22:20:53.596Z,9.90
2023-04-26T22:23:20.520Z,9.80
2023-04-26T22:25:47.132Z,9.80
2023-04-26T22:28:13.738Z,9.80
2023-04-26T22:30:40.354Z,9.78
2023-04-26T22:33:07.199Z,9.68
2023-04-26T22:35:34.816Z,9.52
2023-04-26T22:38:01.421Z,9.50
2023-04-26T22:40:28.015Z,9.40
2023-04-26T22:42:54.667Z,9.30
2023-04-26T22:45:21.507Z,9.20
2023-04-26T22:47:48.157Z,9.20
2023-04-26T22:50:14.920Z,9.20
2023-04-26T22:52:41.544Z,9.22
2023-04-26T22:55:09.175Z,9.30
2023-04-26T22:57:35.778Z,9.30
2023-04-26T23:00:02.670Z,9.30
2023-04-26T23:02:29.443Z,9.30
2023-04-26T23:04:56.723Z,9.30
2023-04-26T23:07:23.477Z,9.30
2023-04-26T23:09:50.129Z,9.32
2023-04-26T23:12:19.903Z,9.30
2023-04-26T23:14:47.930Z,9.30
2023-04-26T23:17:14.518Z,9.30
2023-04-26T23:19:42.322Z,9.30
2023-04-26T23:22:09.069Z,9.30
2023-04-26T23:24:35.746Z,9.30
2023-04-26T23:27:02.747Z,9.28
2023-04-26T23:29:29.385Z,9.20
2023-04-26T23:31:56.316Z,9.20
2023-04-26T23:34:23.629Z,9.20
2023-04-26T23:36:50.205Z,9.10
2023-04-26T23:39:16.891Z,9.00
2023-04-26T23:41:43.769Z,8.90
2023-04-26T23:44:10.717Z,8.80
2023-04-26T23:46:37.334Z,8.80
2023-04-26T23:49:04.083Z,8.70
2023-04-26T23:51:32.409Z,8.70
2023-04-26T23:53:59.027Z,8.70
2023-04-26T23:56:25.861Z,8.60
2023-04-26T23:58:52.476Z,8.60
